This is the latest recevied weather packets stored in our database for station/object CE2KVL-1. If no packets are shown the sender has not sent any weather packets the latest 10 day(s).
| Time | Temp. | Humidity | Pressure | Rain* | Wind** | Luminosity | Snow |
|---|---|---|---|---|---|---|---|
| 1777998782 | 20° C | 41% | 1016.2 hPa | - | - | - | - |
| 1777998483 | 20.56° C | 40% | 1015.3 hPa | - | - | - | - |
| 1777998183 | 20° C | 40% | 1015.8 hPa | - | - | - | - |
| 1777997883 | 20° C | 40% | 1016 hPa | - | - | - | - |
| 1777997282 | 19.44° C | 42% | 1016 hPa | - | - | - | - |
| 1777996683 | 19.44° C | 42% | 1015.9 hPa | - | - | - | - |
| 1777995483 | 19.44° C | 42% | 1016.4 hPa | - | - | - | - |
| 1777995183 | 18.89° C | 42% | 1016.4 hPa | - | - | - | - |
| 1777994882 | 18.89° C | 43% | 1016.6 hPa | - | - | - | - |
| 1777994583 | 18.89° C | 43% | 1017 hPa | - | - | - | - |
| 1777994283 | 18.89° C | 43% | 1016.5 hPa | - | - | - | - |
| 1777993983 | 18.89° C | 43% | 1016.9 hPa | - | - | - | - |
| 1777993683 | 18.89° C | 43% | 1017.2 hPa | - | - | - | - |
| 1777993083 | 18.89° C | 42% | 1017.3 hPa | - | - | - | - |
| 1777992483 | 18.89° C | 41% | 1017.5 hPa | - | - | - | - |
| 1777991883 | 18.33° C | 42% | 1017.4 hPa | - | - | - | - |
| 1777991583 | 18.33° C | 41% | 1017.7 hPa | - | - | - | - |
| 1777991283 | 18.33° C | 43% | 1017.4 hPa | - | - | - | - |
| 1777990983 | 18.33° C | 43% | 1017.3 hPa | - | - | - | - |
| 1777990683 | 18.33° C | 47% | 1017.4 hPa | - | - | - | - |
| 1777990383 | 18.33° C | 48% | 1017.3 hPa | - | - | - | - |
| 1777988283 | 17.22° C | 51% | 1018.3 hPa | - | - | - | - |
| 1777987982 | 16.67° C | 51% | 1018.7 hPa | - | - | - | - |
| 1777987683 | 16.67° C | 52% | 1018.9 hPa | - | - | - | - |
| 1777987383 | 16.67° C | 52% | 1018.9 hPa | - | - | - | - |
* Rain since midnight (hover to see other rain measurements)
** Current wind speed in m/s (hover to see current wind gust speed)